KRDG/RDG METAR and TAF weather

Enter ICAO airport designator
Station Type Date Time Source
KRDG METAR 2022/11/26 08:54 UTC NOAA

KRDG 260854Z AUTO 29007KT 10SM CLR 05/M03 A3006 RMK AO2 SLP184 T00501028 51012


Station Type Date Time Source
KRDG Decoded METAR 2022/11/26 08:54 UTC NOAA

READING REGIONAL AIRPORT, PA, United States (KRDG) 40-22N 075-58W 109M
Nov 26, 2022 - 03:54 AM EST / 2022.11.26 0854 UTC
Wind: from the WNW (290 degrees) at 8 MPH (7 KT):0
Visibility: 10 mile(s):0
Sky conditions: clear
Temperature: 41.0 F (5.0 C)
Dew Point: 27.0 F (-2.8 C)
Relative Humidity: 57%
Pressure (altimeter): 30.06 in. Hg (1017 hPa)
Pressure tendency: 0.04 inches (1.2 hPa) higher than three hours ago
ob: KRDG 260854Z AUTO 29007KT 10SM CLR 05/M03 A3006 RMK AO2 SLP184 T00501028 51012
cycle: 9

Station Type Date Time Source
KRDG TAF 2022/11/26 08:48 UTC NOAA

TAF
AMD KRDG 260747Z 2608/2706 31011KT P6SM BKN045
FM261400 28007KT P6SM FEW250

Example: see airport list